createdAt,value
2018-07-06T09:47:21.092Z,9.70
2018-07-06T09:49:49.764Z,6.67
2018-07-06T09:52:18.466Z,5.87
2018-07-06T09:56:44.957Z,5.67
2018-07-06T09:59:13.692Z,6.20
2018-07-06T10:01:56.565Z,5.00
2018-07-06T10:04:25.257Z,6.50
2018-07-06T10:06:53.886Z,7.20
2018-07-06T10:09:22.484Z,8.13
2018-07-06T10:11:58.789Z,6.27
2018-07-06T10:14:27.377Z,6.70
2018-07-06T10:16:56.017Z,5.57
2018-07-06T10:19:24.746Z,5.40
2018-07-06T10:22:12.047Z,6.60
2018-07-06T10:24:40.612Z,6.50
2018-07-06T10:27:09.419Z,5.93
2018-07-06T10:30:04.006Z,5.73
2018-07-06T10:32:42.894Z,5.67
2018-07-06T10:35:11.637Z,4.70
2018-07-06T10:37:40.329Z,7.60
2018-07-06T10:40:09.089Z,6.00
2018-07-06T10:42:38.770Z,4.90
2018-07-06T10:45:07.445Z,4.70
2018-07-06T10:47:36.047Z,5.03
2018-07-06T10:50:04.697Z,3.90
2018-07-06T10:52:38.971Z,5.23
2018-07-06T10:55:07.607Z,5.27
2018-07-06T10:57:36.320Z,4.43
2018-07-06T11:00:05.002Z,4.50
2018-07-06T11:02:42.142Z,4.83
2018-07-06T11:05:10.880Z,4.40
2018-07-06T11:07:39.511Z,4.37
2018-07-06T11:10:08.203Z,5.40
2018-07-06T11:12:39.078Z,4.63
2018-07-06T11:15:07.786Z,5.00
2018-07-06T11:17:36.466Z,4.30
2018-07-06T11:20:05.059Z,4.70
2018-07-06T11:22:50.635Z,4.63
2018-07-06T11:25:19.230Z,4.50
2018-07-06T11:27:48.381Z,5.07
2018-07-06T11:30:17.044Z,5.37
2018-07-06T11:32:55.072Z,4.47
2018-07-06T11:35:23.837Z,3.80
2018-07-06T11:37:52.459Z,5.30
2018-07-06T11:40:21.250Z,4.00
2018-07-06T11:42:49.927Z,4.53
2018-07-06T11:45:18.600Z,3.70
2018-07-06T11:47:47.327Z,3.97
2018-07-06T11:50:15.994Z,4.87
2018-07-06T11:53:01.458Z,5.03
2018-07-06T11:55:30.231Z,4.37
2018-07-06T11:57:58.874Z,4.20
2018-07-06T12:00:27.614Z,4.53
2018-07-06T12:03:22.830Z,4.83
2018-07-06T12:05:51.498Z,4.77
2018-07-06T12:08:20.213Z,12.00
2018-07-06T12:10:48.926Z,6.97
2018-07-06T12:13:22.158Z,4.23
2018-07-06T12:15:51.896Z,4.17
2018-07-06T12:18:20.612Z,4.80
2018-07-06T12:20:49.272Z,4.53
2018-07-06T12:23:26.124Z,4.00
2018-07-06T12:25:54.735Z,4.60
2018-07-06T12:28:23.399Z,5.00
2018-07-06T12:30:51.992Z,5.27
2018-07-06T12:33:24.013Z,4.00
2018-07-06T12:35:52.720Z,4.00
2018-07-06T12:38:21.471Z,4.07
2018-07-06T12:40:50.101Z,4.50
2018-07-06T12:43:21.890Z,5.13
2018-07-06T12:45:50.519Z,4.47
2018-07-06T12:48:19.248Z,3.97
2018-07-06T12:50:47.857Z,5.70
2018-07-06T12:53:17.451Z,4.77
2018-07-06T12:55:46.121Z,4.43
2018-07-06T12:58:14.844Z,5.57
2018-07-06T13:00:44.132Z,5.57
2018-07-06T13:03:20.067Z,4.10
2018-07-06T13:05:48.794Z,4.23
2018-07-06T13:08:17.466Z,6.20
2018-07-06T13:10:46.080Z,4.23
2018-07-06T13:13:14.707Z,4.93
2018-07-06T13:15:43.381Z,4.87
2018-07-06T13:18:11.979Z,4.70
2018-07-06T13:20:40.670Z,4.33
2018-07-06T13:23:09.506Z,4.17
2018-07-06T13:25:38.109Z,4.33
2018-07-06T13:28:07.030Z,3.63
2018-07-06T13:30:35.621Z,4.60
2018-07-06T13:33:12.173Z,4.67
2018-07-06T13:35:40.804Z,3.33
2018-07-06T13:38:09.441Z,5.30
2018-07-06T13:40:38.034Z,4.70
2018-07-06T13:43:10.767Z,3.80
2018-07-06T13:45:39.342Z,4.00
2018-07-06T13:48:08.033Z,4.10
2018-07-06T13:50:36.598Z,3.70
2018-07-06T13:53:19.867Z,4.27
2018-07-06T13:55:48.466Z,4.80
2018-07-06T13:58:17.293Z,4.67
2018-07-06T14:00:45.861Z,5.13
2018-07-06T14:03:28.135Z,5.87
2018-07-06T14:05:57.009Z,5.27
2018-07-06T14:08:25.591Z,5.43
2018-07-06T14:10:54.436Z,4.70
2018-07-06T14:13:30.613Z,5.27
2018-07-06T14:15:59.610Z,4.13
2018-07-06T14:18:28.535Z,5.20
2018-07-06T14:20:57.290Z,3.67
2018-07-06T14:23:33.671Z,3.47
2018-07-06T14:26:02.509Z,2.50
2018-07-06T14:28:31.470Z,4.50
2018-07-06T14:31:00.174Z,4.00
2018-07-06T14:33:42.754Z,4.67
2018-07-06T14:36:11.706Z,4.50
2018-07-06T14:38:40.607Z,3.90
2018-07-06T14:41:09.379Z,4.77
2018-07-06T14:43:42.684Z,4.30
2018-07-06T14:46:11.620Z,4.83
2018-07-06T14:48:40.564Z,4.30
2018-07-06T14:51:09.462Z,3.77
2018-07-06T14:53:59.584Z,4.47
2018-07-06T14:56:29.665Z,4.03
2018-07-06T14:58:58.644Z,5.10
2018-07-06T15:01:27.582Z,4.30
2018-07-06T15:03:58.349Z,4.73
2018-07-06T15:06:27.013Z,4.50
2018-07-06T15:08:56.814Z,3.70
2018-07-06T15:11:25.418Z,4.57
2018-07-06T15:13:54.223Z,4.53
2018-07-06T15:16:22.812Z,3.53
2018-07-06T15:18:51.395Z,3.17
2018-07-06T15:21:19.969Z,3.60
2018-07-06T15:23:49.648Z,4.27
2018-07-06T15:26:18.355Z,3.67
2018-07-06T15:28:47.046Z,4.93
2018-07-06T15:31:15.848Z,4.00
2018-07-06T15:33:44.503Z,3.47
2018-07-06T15:36:39.802Z,4.90
2018-07-06T15:39:08.526Z,4.03
2018-07-06T15:41:37.233Z,4.17
2018-07-06T15:44:05.954Z,3.87
2018-07-06T15:46:34.679Z,3.50
2018-07-06T15:49:03.434Z,3.77
2018-07-06T15:51:32.040Z,4.13
2018-07-06T15:54:00.732Z,4.70
2018-07-06T15:56:31.387Z,5.40
2018-07-06T15:58:59.950Z,4.20
2018-07-06T16:01:28.536Z,5.57
2018-07-06T16:03:57.186Z,5.57
2018-07-06T16:06:33.195Z,4.23
2018-07-06T16:09:01.943Z,7.07
2018-07-06T16:11:30.543Z,6.57
2018-07-06T16:13:59.156Z,5.80
2018-07-06T16:16:27.923Z,6.27
2018-07-06T16:18:56.623Z,5.03
2018-07-06T16:21:25.301Z,4.13
2018-07-06T16:23:53.939Z,3.80
2018-07-06T16:26:25.988Z,4.50
2018-07-06T16:28:54.830Z,4.10
2018-07-06T16:31:23.498Z,3.90
2018-07-06T16:33:52.314Z,4.03
2018-07-06T16:36:21.144Z,3.63
2018-07-06T16:38:49.874Z,2.87
2018-07-06T16:41:18.685Z,4.10
2018-07-06T16:43:47.302Z,3.53
2018-07-06T16:46:33.006Z,4.10
2018-07-06T16:49:01.569Z,3.37
2018-07-06T16:51:30.142Z,4.10
2018-07-06T16:53:58.761Z,4.00
2018-07-06T16:56:48.284Z,4.00
2018-07-06T16:59:16.973Z,4.30
2018-07-06T17:01:45.708Z,3.50
2018-07-06T17:04:14.269Z,3.73
2018-07-06T17:06:43.075Z,3.87
2018-07-06T17:09:11.841Z,3.23
2018-07-06T17:11:40.462Z,3.83
2018-07-06T17:14:09.119Z,3.17
2018-07-06T17:16:37.882Z,3.23
2018-07-06T17:19:06.437Z,3.93
2018-07-06T17:21:35.145Z,3.57
2018-07-06T17:24:03.853Z,3.33
2018-07-06T17:26:32.514Z,4.07
2018-07-06T17:29:01.209Z,3.40
2018-07-06T17:31:30.008Z,3.17
2018-07-06T17:33:58.691Z,3.93
2018-07-06T17:36:27.454Z,3.70
2018-07-06T17:38:56.024Z,4.10
2018-07-06T17:41:24.839Z,3.07
2018-07-06T17:43:53.721Z,4.60
2018-07-06T17:46:23.399Z,3.10
2018-07-06T17:48:52.088Z,3.87
2018-07-06T17:51:20.821Z,3.43
2018-07-06T17:53:49.472Z,3.90
2018-07-06T17:56:18.320Z,4.40
2018-07-06T17:58:46.869Z,4.33
2018-07-06T18:01:15.551Z,3.87
2018-07-06T18:03:44.334Z,3.00
2018-07-06T18:06:12.914Z,3.87
2018-07-06T18:08:42.656Z,3.20
2018-07-06T18:11:11.371Z,3.27
2018-07-06T18:13:40.063Z,3.13
2018-07-06T18:16:08.911Z,2.97
2018-07-06T18:18:37.541Z,3.40
2018-07-06T18:21:06.218Z,3.23
2018-07-06T18:23:35.008Z,3.00
2018-07-06T18:26:03.753Z,2.97
2018-07-06T18:28:32.358Z,3.53
2018-07-06T18:31:01.106Z,3.30
2018-07-06T18:33:29.806Z,3.50
2018-07-06T18:35:58.542Z,4.00
2018-07-06T18:38:27.178Z,3.67
2018-07-06T18:40:55.858Z,3.00
2018-07-06T18:43:24.399Z,3.40
2018-07-06T18:45:53.041Z,2.97
2018-07-06T18:48:21.741Z,2.80
2018-07-06T18:50:50.425Z,3.17
2018-07-06T18:53:18.944Z,2.63
2018-07-06T18:55:47.659Z,2.50
2018-07-06T18:58:16.222Z,2.90
2018-07-06T19:00:45.026Z,2.90
2018-07-06T19:03:13.546Z,2.97
2018-07-06T19:05:42.258Z,2.60
2018-07-06T19:08:10.909Z,2.43
2018-07-06T19:10:39.694Z,2.30
2018-07-06T19:13:08.371Z,2.77
2018-07-06T19:15:37.044Z,2.10
2018-07-06T19:18:05.885Z,2.63
2018-07-06T19:20:34.538Z,2.10
2018-07-06T19:23:03.275Z,2.50
2018-07-06T19:25:31.925Z,2.63
2018-07-06T19:28:00.569Z,2.40
2018-07-06T19:30:29.154Z,2.17
2018-07-06T19:32:57.874Z,2.23
2018-07-06T19:35:26.510Z,2.33
2018-07-06T19:37:55.066Z,2.30
2018-07-06T19:40:23.633Z,2.67
2018-07-06T19:42:52.546Z,2.10
2018-07-06T19:45:21.272Z,2.03
2018-07-06T19:47:49.983Z,1.90
2018-07-06T19:50:18.538Z,2.27
2018-07-06T19:52:47.195Z,2.67
2018-07-06T19:55:16.980Z,2.07
2018-07-06T19:57:45.684Z,2.47
2018-07-06T20:00:14.340Z,1.97
2018-07-06T20:02:42.861Z,2.33
2018-07-06T20:05:11.618Z,1.93
2018-07-06T20:07:40.276Z,2.37
2018-07-06T20:10:08.793Z,2.30
2018-07-06T20:12:37.446Z,2.53
2018-07-06T20:15:06.115Z,2.13
2018-07-06T20:17:35.761Z,1.97
2018-07-06T20:20:04.509Z,2.60
2018-07-06T20:22:33.215Z,1.67
2018-07-06T20:25:01.754Z,1.80
2018-07-06T20:27:30.466Z,1.50
2018-07-06T20:29:59.084Z,2.00
2018-07-06T20:32:27.751Z,2.20
2018-07-06T20:34:56.449Z,2.50
2018-07-06T20:37:25.090Z,2.00
2018-07-06T20:39:53.616Z,2.00
2018-07-06T20:42:22.488Z,1.70
2018-07-06T20:44:51.265Z,1.47
2018-07-06T20:47:20.024Z,1.80
2018-07-06T20:49:48.709Z,2.27
2018-07-06T20:52:17.527Z,2.53
2018-07-06T20:54:47.150Z,2.10
2018-07-06T20:57:15.910Z,1.90
2018-07-06T20:59:44.547Z,2.20
2018-07-06T21:02:13.274Z,1.50
2018-07-06T21:04:41.862Z,2.00
2018-07-06T21:07:10.495Z,2.07
2018-07-06T21:09:39.112Z,1.80
2018-07-06T21:12:07.833Z,2.07
2018-07-06T21:14:36.480Z,2.20
2018-07-06T21:17:05.235Z,1.63
2018-07-06T21:19:33.966Z,2.30
2018-07-06T21:22:02.805Z,1.37
2018-07-06T21:24:31.574Z,1.73
2018-07-06T21:27:00.247Z,1.57
2018-07-06T21:29:28.812Z,1.20
2018-07-06T21:31:57.518Z,1.40
2018-07-06T21:34:26.211Z,1.67
2018-07-06T21:36:54.841Z,1.63
2018-07-06T21:39:23.420Z,1.43
2018-07-06T21:41:52.077Z,1.73
2018-07-06T21:44:20.695Z,1.80
2018-07-06T21:46:49.330Z,1.17
2018-07-06T21:49:18.059Z,1.57
2018-07-06T21:51:46.779Z,1.67
2018-07-06T21:54:15.316Z,1.80
2018-07-06T21:56:44.028Z,1.50
2018-07-06T21:59:12.784Z,1.50
2018-07-06T22:01:41.344Z,1.77
2018-07-06T22:04:10.044Z,1.00
2018-07-06T22:06:38.713Z,2.00
2018-07-06T22:09:08.599Z,1.50
2018-07-06T22:11:37.318Z,1.67
2018-07-06T22:14:05.923Z,1.87
2018-07-06T22:16:34.509Z,1.70
2018-07-06T22:19:03.225Z,1.60
2018-07-06T22:21:31.830Z,2.10
2018-07-06T22:24:00.467Z,2.00
2018-07-06T22:26:29.115Z,1.73
2018-07-06T22:28:57.769Z,1.47
2018-07-06T22:31:26.493Z,1.20
2018-07-06T22:33:55.149Z,1.43
2018-07-06T22:36:23.800Z,1.47
2018-07-06T22:38:53.617Z,1.63
2018-07-06T22:41:22.298Z,1.57
2018-07-06T22:43:51.088Z,1.77
2018-07-06T22:46:19.775Z,1.17
2018-07-06T22:48:48.470Z,2.10
2018-07-06T22:51:17.035Z,1.80
2018-07-06T22:53:45.762Z,1.60
2018-07-06T22:56:14.385Z,2.17
2018-07-06T22:58:43.033Z,1.90
2018-07-06T23:01:11.625Z,1.10
2018-07-06T23:03:40.343Z,1.80
2018-07-06T23:06:09.008Z,1.63
2018-07-06T23:08:37.647Z,1.70
2018-07-06T23:11:06.179Z,1.80
2018-07-06T23:13:34.849Z,1.30
2018-07-06T23:16:03.565Z,1.40
2018-07-06T23:18:32.203Z,1.83
2018-07-06T23:21:00.719Z,1.60
2018-07-06T23:23:29.438Z,1.80
2018-07-06T23:25:58.070Z,2.00
2018-07-06T23:28:26.762Z,1.60
2018-07-06T23:30:56.415Z,1.57
2018-07-06T23:33:25.054Z,1.67
2018-07-06T23:35:53.713Z,1.43
2018-07-06T23:38:26.046Z,1.80
2018-07-06T23:40:54.712Z,1.50
2018-07-06T23:43:23.385Z,2.37
2018-07-06T23:45:52.024Z,2.30
2018-07-06T23:48:20.772Z,1.63
2018-07-06T23:50:49.446Z,1.90
2018-07-06T23:53:17.979Z,2.13
2018-07-06T23:55:46.615Z,1.90
2018-07-06T23:58:15.388Z,1.87
